sensor_id;sensor_type;location;lat;lon;timestamp;P1;durP1;ratioP1;P2;durP2;ratioP2
35795;SDS011;21916;52.428;13.302;2022-07-29T00:02:05;8.00;;;3.10;;
35795;SDS011;21916;52.428;13.302;2022-07-29T00:04:33;8.43;;;3.03;;
35795;SDS011;21916;52.428;13.302;2022-07-29T00:07:00;6.10;;;3.00;;
35795;SDS011;21916;52.428;13.302;2022-07-29T00:09:26;5.85;;;3.42;;
35795;SDS011;21916;52.428;13.302;2022-07-29T00:11:52;6.47;;;3.38;;
35795;SDS011;21916;52.428;13.302;2022-07-29T00:14:20;5.95;;;3.17;;
35795;SDS011;21916;52.428;13.302;2022-07-29T00:16:46;8.23;;;3.30;;
35795;SDS011;21916;52.428;13.302;2022-07-29T00:19:12;6.03;;;3.40;;
35795;SDS011;21916;52.428;13.302;2022-07-29T00:21:37;8.55;;;3.60;;
35795;SDS011;21916;52.428;13.302;2022-07-29T00:24:03;6.32;;;2.88;;
35795;SDS011;21916;52.428;13.302;2022-07-29T00:26:29;9.15;;;3.30;;
35795;SDS011;21916;52.428;13.302;2022-07-29T00:29:00;6.85;;;3.03;;
35795;SDS011;21916;52.428;13.302;2022-07-29T00:31:27;10.10;;;3.35;;
35795;SDS011;21916;52.428;13.302;2022-07-29T00:33:53;11.15;;;3.17;;
35795;SDS011;21916;52.428;13.302;2022-07-29T00:36:19;9.27;;;2.83;;
35795;SDS011;21916;52.428;13.302;2022-07-29T00:38:49;6.63;;;3.20;;
35795;SDS011;21916;52.428;13.302;2022-07-29T00:41:15;7.70;;;3.03;;
35795;SDS011;21916;52.428;13.302;2022-07-29T00:43:42;6.05;;;2.97;;
35795;SDS011;21916;52.428;13.302;2022-07-29T00:46:08;6.72;;;2.75;;
35795;SDS011;21916;52.428;13.302;2022-07-29T00:48:34;4.93;;;3.40;;
35795;SDS011;21916;52.428;13.302;2022-07-29T00:51:01;10.57;;;3.45;;
35795;SDS011;21916;52.428;13.302;2022-07-29T00:53:29;6.55;;;3.53;;
35795;SDS011;21916;52.428;13.302;2022-07-29T00:55:56;11.00;;;3.15;;
35795;SDS011;21916;52.428;13.302;2022-07-29T00:58:23;9.75;;;3.10;;
35795;SDS011;21916;52.428;13.302;2022-07-29T01:00:51;9.50;;;3.60;;
35795;SDS011;21916;52.428;13.302;2022-07-29T01:03:17;7.35;;;2.80;;
35795;SDS011;21916;52.428;13.302;2022-07-29T01:05:45;7.75;;;3.03;;
35795;SDS011;21916;52.428;13.302;2022-07-29T01:08:12;6.13;;;3.15;;
35795;SDS011;21916;52.428;13.302;2022-07-29T01:10:40;8.00;;;3.33;;
35795;SDS011;21916;52.428;13.302;2022-07-29T01:13:08;9.52;;;3.47;;
35795;SDS011;21916;52.428;13.302;2022-07-29T01:15:46;11.43;;;3.72;;
35795;SDS011;21916;52.428;13.302;2022-07-29T01:18:18;9.65;;;3.50;;
35795;SDS011;21916;52.428;13.302;2022-07-29T01:32:18;9.27;;;3.42;;
35795;SDS011;21916;52.428;13.302;2022-07-29T01:34:52;5.72;;;3.17;;
35795;SDS011;21916;52.428;13.302;2022-07-29T01:40:20;8.75;;;3.53;;
35795;SDS011;21916;52.428;13.302;2022-07-29T01:42:54;6.72;;;3.58;;
35795;SDS011;21916;52.428;13.302;2022-07-29T01:45:24;9.23;;;3.13;;
35795;SDS011;21916;52.428;13.302;2022-07-29T01:48:00;6.45;;;3.13;;
35795;SDS011;21916;52.428;13.302;2022-07-29T01:50:32;6.47;;;3.45;;
35795;SDS011;21916;52.428;13.302;2022-07-29T01:53:05;7.30;;;3.70;;
35795;SDS011;21916;52.428;13.302;2022-07-29T01:55:35;5.47;;;3.78;;
35795;SDS011;21916;52.428;13.302;2022-07-29T01:58:05;8.48;;;3.47;;
35795;SDS011;21916;52.428;13.302;2022-07-29T02:00:32;10.00;;;3.70;;
35795;SDS011;21916;52.428;13.302;2022-07-29T02:03:02;5.25;;;3.30;;
35795;SDS011;21916;52.428;13.302;2022-07-29T02:05:32;9.80;;;3.10;;
35795;SDS011;21916;52.428;13.302;2022-07-29T02:08:00;7.80;;;3.00;;
35795;SDS011;21916;52.428;13.302;2022-07-29T02:10:29;5.93;;;3.03;;
35795;SDS011;21916;52.428;13.302;2022-07-29T02:12:57;6.38;;;3.28;;
35795;SDS011;21916;52.428;13.302;2022-07-29T02:15:25;9.18;;;3.13;;
35795;SDS011;21916;52.428;13.302;2022-07-29T02:17:56;8.93;;;3.30;;
35795;SDS011;21916;52.428;13.302;2022-07-29T02:20:26;5.65;;;3.33;;
35795;SDS011;21916;52.428;13.302;2022-07-29T02:22:54;6.63;;;3.55;;
35795;SDS011;21916;52.428;13.302;2022-07-29T02:25:22;5.20;;;3.17;;
35795;SDS011;21916;52.428;13.302;2022-07-29T02:27:50;9.55;;;3.30;;
35795;SDS011;21916;52.428;13.302;2022-07-29T02:30:17;9.10;;;3.55;;
35795;SDS011;21916;52.428;13.302;2022-07-29T02:32:44;8.82;;;3.55;;
35795;SDS011;21916;52.428;13.302;2022-07-29T02:35:13;7.10;;;3.20;;
35795;SDS011;21916;52.428;13.302;2022-07-29T02:37:40;14.38;;;3.80;;
35795;SDS011;21916;52.428;13.302;2022-07-29T02:40:09;5.30;;;3.42;;
35795;SDS011;21916;52.428;13.302;2022-07-29T02:42:38;7.35;;;3.40;;
35795;SDS011;21916;52.428;13.302;2022-07-29T02:45:09;8.63;;;3.15;;
35795;SDS011;21916;52.428;13.302;2022-07-29T02:47:42;8.48;;;3.70;;
35795;SDS011;21916;52.428;13.302;2022-07-29T02:50:17;7.85;;;3.33;;
35795;SDS011;21916;52.428;13.302;2022-07-29T02:52:56;9.80;;;3.67;;
35795;SDS011;21916;52.428;13.302;2022-07-29T03:00:27;10.32;;;3.80;;
35795;SDS011;21916;52.428;13.302;2022-07-29T03:02:56;9.23;;;3.35;;
35795;SDS011;21916;52.428;13.302;2022-07-29T03:05:25;11.20;;;3.35;;
35795;SDS011;21916;52.428;13.302;2022-07-29T03:07:55;6.32;;;3.08;;
35795;SDS011;21916;52.428;13.302;2022-07-29T03:10:25;8.00;;;3.28;;
35795;SDS011;21916;52.428;13.302;2022-07-29T03:12:51;6.68;;;3.28;;
35795;SDS011;21916;52.428;13.302;2022-07-29T03:15:18;7.38;;;3.55;;
35795;SDS011;21916;52.428;13.302;2022-07-29T03:17:44;7.95;;;3.45;;
35795;SDS011;21916;52.428;13.302;2022-07-29T03:20:11;5.85;;;3.30;;
35795;SDS011;21916;52.428;13.302;2022-07-29T03:22:42;8.35;;;3.33;;
35795;SDS011;21916;52.428;13.302;2022-07-29T03:25:12;13.50;;;3.95;;
35795;SDS011;21916;52.428;13.302;2022-07-29T03:27:39;9.98;;;4.18;;
35795;SDS011;21916;52.428;13.302;2022-07-29T03:30:06;6.40;;;3.75;;
35795;SDS011;21916;52.428;13.302;2022-07-29T03:32:34;7.07;;;3.90;;
35795;SDS011;21916;52.428;13.302;2022-07-29T03:35:00;7.80;;;4.38;;
35795;SDS011;21916;52.428;13.302;2022-07-29T03:37:26;8.40;;;3.90;;
35795;SDS011;21916;52.428;13.302;2022-07-29T03:39:52;5.15;;;3.05;;
35795;SDS011;21916;52.428;13.302;2022-07-29T03:42:21;6.03;;;3.05;;
35795;SDS011;21916;52.428;13.302;2022-07-29T03:44:50;8.18;;;3.20;;
35795;SDS011;21916;52.428;13.302;2022-07-29T03:47:18;5.05;;;3.80;;
35795;SDS011;21916;52.428;13.302;2022-07-29T03:49:48;6.63;;;3.03;;
35795;SDS011;21916;52.428;13.302;2022-07-29T03:52:17;7.32;;;3.22;;
35795;SDS011;21916;52.428;13.302;2022-07-29T03:54:43;7.70;;;3.20;;
35795;SDS011;21916;52.428;13.302;2022-07-29T03:57:10;11.48;;;3.22;;
35795;SDS011;21916;52.428;13.302;2022-07-29T03:59:37;8.20;;;3.53;;
35795;SDS011;21916;52.428;13.302;2022-07-29T04:02:04;6.40;;;3.50;;
35795;SDS011;21916;52.428;13.302;2022-07-29T04:04:34;7.32;;;2.92;;
35795;SDS011;21916;52.428;13.302;2022-07-29T04:07:00;5.88;;;3.33;;
35795;SDS011;21916;52.428;13.302;2022-07-29T04:09:26;8.52;;;3.80;;
35795;SDS011;21916;52.428;13.302;2022-07-29T04:11:52;8.68;;;3.60;;
35795;SDS011;21916;52.428;13.302;2022-07-29T04:14:19;7.75;;;3.22;;
35795;SDS011;21916;52.428;13.302;2022-07-29T04:16:45;6.07;;;3.08;;
35795;SDS011;21916;52.428;13.302;2022-07-29T04:19:14;10.30;;;3.65;;
35795;SDS011;21916;52.428;13.302;2022-07-29T04:21:40;9.27;;;3.30;;
35795;SDS011;21916;52.428;13.302;2022-07-29T04:24:06;8.20;;;3.35;;
35795;SDS011;21916;52.428;13.302;2022-07-29T04:26:33;9.10;;;3.40;;
35795;SDS011;21916;52.428;13.302;2022-07-29T04:28:59;8.88;;;3.22;;
35795;SDS011;21916;52.428;13.302;2022-07-29T04:31:25;8.70;;;2.85;;
35795;SDS011;21916;52.428;13.302;2022-07-29T04:33:51;6.97;;;3.05;;
35795;SDS011;21916;52.428;13.302;2022-07-29T04:36:17;11.30;;;3.70;;
35795;SDS011;21916;52.428;13.302;2022-07-29T04:38:43;4.80;;;2.70;;
35795;SDS011;21916;52.428;13.302;2022-07-29T04:41:09;13.85;;;3.53;;
35795;SDS011;21916;52.428;13.302;2022-07-29T04:43:35;6.25;;;3.05;;
35795;SDS011;21916;52.428;13.302;2022-07-29T04:46:02;8.95;;;2.75;;
35795;SDS011;21916;52.428;13.302;2022-07-29T04:48:28;6.57;;;3.20;;
35795;SDS011;21916;52.428;13.302;2022-07-29T04:50:54;8.18;;;3.20;;
35795;SDS011;21916;52.428;13.302;2022-07-29T04:53:21;8.95;;;2.97;;
35795;SDS011;21916;52.428;13.302;2022-07-29T04:55:47;11.48;;;3.47;;
35795;SDS011;21916;52.428;13.302;2022-07-29T04:58:13;8.27;;;3.30;;
35795;SDS011;21916;52.428;13.302;2022-07-29T05:00:39;5.32;;;3.30;;
35795;SDS011;21916;52.428;13.302;2022-07-29T05:03:05;7.63;;;3.15;;
35795;SDS011;21916;52.428;13.302;2022-07-29T05:05:31;5.78;;;3.03;;
35795;SDS011;21916;52.428;13.302;2022-07-29T05:07:57;8.65;;;3.08;;
35795;SDS011;21916;52.428;13.302;2022-07-29T05:10:23;8.93;;;3.10;;
35795;SDS011;21916;52.428;13.302;2022-07-29T05:12:49;10.95;;;3.55;;
35795;SDS011;21916;52.428;13.302;2022-07-29T05:15:15;6.50;;;3.25;;
35795;SDS011;21916;52.428;13.302;2022-07-29T05:17:43;5.80;;;3.15;;
35795;SDS011;21916;52.428;13.302;2022-07-29T05:20:09;9.55;;;2.80;;
35795;SDS011;21916;52.428;13.302;2022-07-29T05:22:35;6.72;;;3.10;;
35795;SDS011;21916;52.428;13.302;2022-07-29T05:25:01;9.98;;;3.35;;
35795;SDS011;21916;52.428;13.302;2022-07-29T05:27:27;8.52;;;3.55;;
35795;SDS011;21916;52.428;13.302;2022-07-29T05:29:53;7.15;;;3.33;;
35795;SDS011;21916;52.428;13.302;2022-07-29T05:32:19;5.88;;;2.90;;
35795;SDS011;21916;52.428;13.302;2022-07-29T05:34:45;11.27;;;2.90;;
35795;SDS011;21916;52.428;13.302;2022-07-29T05:37:11;6.70;;;3.35;;
35795;SDS011;21916;52.428;13.302;2022-07-29T05:39:38;6.03;;;3.22;;
35795;SDS011;21916;52.428;13.302;2022-07-29T05:42:09;8.63;;;3.42;;
35795;SDS011;21916;52.428;13.302;2022-07-29T05:44:38;6.35;;;3.53;;
35795;SDS011;21916;52.428;13.302;2022-07-29T05:47:04;9.30;;;3.38;;
35795;SDS011;21916;52.428;13.302;2022-07-29T05:49:31;7.93;;;3.28;;
35795;SDS011;21916;52.428;13.302;2022-07-29T05:51:58;9.93;;;3.42;;
35795;SDS011;21916;52.428;13.302;2022-07-29T05:54:24;6.75;;;2.60;;
35795;SDS011;21916;52.428;13.302;2022-07-29T05:56:51;7.57;;;2.95;;
35795;SDS011;21916;52.428;13.302;2022-07-29T05:59:17;7.10;;;3.20;;
35795;SDS011;21916;52.428;13.302;2022-07-29T06:01:42;6.57;;;2.50;;
35795;SDS011;21916;52.428;13.302;2022-07-29T06:04:08;6.60;;;2.50;;
35795;SDS011;21916;52.428;13.302;2022-07-29T06:06:34;6.55;;;3.05;;
35795;SDS011;21916;52.428;13.302;2022-07-29T06:09:01;4.97;;;2.58;;
35795;SDS011;21916;52.428;13.302;2022-07-29T06:11:27;6.78;;;2.53;;
35795;SDS011;21916;52.428;13.302;2022-07-29T06:13:53;8.32;;;3.05;;
35795;SDS011;21916;52.428;13.302;2022-07-29T06:16:19;7.57;;;2.55;;
35795;SDS011;21916;52.428;13.302;2022-07-29T06:18:45;3.95;;;2.63;;
35795;SDS011;21916;52.428;13.302;2022-07-29T06:21:11;5.25;;;2.60;;
35795;SDS011;21916;52.428;13.302;2022-07-29T06:23:37;7.43;;;2.33;;
35795;SDS011;21916;52.428;13.302;2022-07-29T06:26:04;7.35;;;3.10;;
35795;SDS011;21916;52.428;13.302;2022-07-29T06:28:30;10.02;;;3.97;;
35795;SDS011;21916;52.428;13.302;2022-07-29T06:30:56;7.68;;;2.70;;
35795;SDS011;21916;52.428;13.302;2022-07-29T06:33:22;10.30;;;3.03;;
35795;SDS011;21916;52.428;13.302;2022-07-29T06:35:48;6.88;;;2.40;;
35795;SDS011;21916;52.428;13.302;2022-07-29T06:38:15;6.38;;;2.67;;
35795;SDS011;21916;52.428;13.302;2022-07-29T06:40:41;7.55;;;3.00;;
35795;SDS011;21916;52.428;13.302;2022-07-29T06:43:30;10.60;;;2.88;;
35795;SDS011;21916;52.428;13.302;2022-07-29T06:46:01;10.70;;;2.47;;
35795;SDS011;21916;52.428;13.302;2022-07-29T06:48:29;8.05;;;2.78;;
35795;SDS011;21916;52.428;13.302;2022-07-29T06:50:55;8.98;;;2.97;;
35795;SDS011;21916;52.428;13.302;2022-07-29T06:53:22;10.52;;;2.88;;
35795;SDS011;21916;52.428;13.302;2022-07-29T06:55:48;8.30;;;2.78;;
35795;SDS011;21916;52.428;13.302;2022-07-29T06:58:15;6.00;;;2.28;;
35795;SDS011;21916;52.428;13.302;2022-07-29T07:00:48;8.18;;;2.78;;
35795;SDS011;21916;52.428;13.302;2022-07-29T07:03:15;7.97;;;2.50;;
35795;SDS011;21916;52.428;13.302;2022-07-29T07:05:42;7.38;;;2.53;;
35795;SDS011;21916;52.428;13.302;2022-07-29T07:08:08;6.82;;;2.70;;
35795;SDS011;21916;52.428;13.302;2022-07-29T07:10:34;6.90;;;2.53;;
35795;SDS011;21916;52.428;13.302;2022-07-29T07:13:00;9.20;;;2.92;;
35795;SDS011;21916;52.428;13.302;2022-07-29T07:15:27;5.18;;;2.67;;
35795;SDS011;21916;52.428;13.302;2022-07-29T07:17:53;10.70;;;3.22;;
35795;SDS011;21916;52.428;13.302;2022-07-29T07:20:19;6.78;;;2.80;;
35795;SDS011;21916;52.428;13.302;2022-07-29T07:22:45;8.35;;;2.55;;
35795;SDS011;21916;52.428;13.302;2022-07-29T07:25:11;6.72;;;2.67;;
35795;SDS011;21916;52.428;13.302;2022-07-29T07:27:37;6.63;;;2.65;;
35795;SDS011;21916;52.428;13.302;2022-07-29T07:30:04;11.57;;;3.55;;
35795;SDS011;21916;52.428;13.302;2022-07-29T07:32:35;5.00;;;2.15;;
35795;SDS011;21916;52.428;13.302;2022-07-29T07:35:01;10.43;;;3.00;;
35795;SDS011;21916;52.428;13.302;2022-07-29T07:37:28;6.03;;;2.28;;
35795;SDS011;21916;52.428;13.302;2022-07-29T07:39:54;5.43;;;2.45;;
35795;SDS011;21916;52.428;13.302;2022-07-29T07:42:20;8.52;;;2.13;;
35795;SDS011;21916;52.428;13.302;2022-07-29T07:44:46;8.82;;;2.60;;
35795;SDS011;21916;52.428;13.302;2022-07-29T07:47:14;9.30;;;2.55;;
35795;SDS011;21916;52.428;13.302;2022-07-29T07:49:48;6.13;;;1.90;;
35795;SDS011;21916;52.428;13.302;2022-07-29T07:52:18;7.50;;;2.05;;
35795;SDS011;21916;52.428;13.302;2022-07-29T07:54:46;5.45;;;2.30;;
35795;SDS011;21916;52.428;13.302;2022-07-29T07:57:13;4.53;;;2.28;;
35795;SDS011;21916;52.428;13.302;2022-07-29T07:59:40;6.22;;;2.13;;
35795;SDS011;21916;52.428;13.302;2022-07-29T08:02:06;5.18;;;2.10;;
35795;SDS011;21916;52.428;13.302;2022-07-29T08:04:32;5.82;;;1.83;;
35795;SDS011;21916;52.428;13.302;2022-07-29T08:07:01;8.18;;;2.78;;
35795;SDS011;21916;52.428;13.302;2022-07-29T08:09:28;6.80;;;1.95;;
35795;SDS011;21916;52.428;13.302;2022-07-29T08:11:54;4.85;;;2.25;;
35795;SDS011;21916;52.428;13.302;2022-07-29T08:14:21;5.15;;;2.00;;
35795;SDS011;21916;52.428;13.302;2022-07-29T08:16:47;5.97;;;2.10;;
35795;SDS011;21916;52.428;13.302;2022-07-29T08:19:13;4.75;;;1.80;;
35795;SDS011;21916;52.428;13.302;2022-07-29T08:21:39;14.05;;;2.60;;
35795;SDS011;21916;52.428;13.302;2022-07-29T08:24:05;5.80;;;1.65;;
35795;SDS011;21916;52.428;13.302;2022-07-29T08:26:50;5.15;;;2.03;;
35795;SDS011;21916;52.428;13.302;2022-07-29T08:29:16;5.50;;;1.90;;
35795;SDS011;21916;52.428;13.302;2022-07-29T08:31:42;4.38;;;1.80;;
35795;SDS011;21916;52.428;13.302;2022-07-29T08:34:08;8.38;;;5.40;;
35795;SDS011;21916;52.428;13.302;2022-07-29T08:36:34;11.77;;;4.47;;
35795;SDS011;21916;52.428;13.302;2022-07-29T08:39:01;8.85;;;3.47;;
35795;SDS011;21916;52.428;13.302;2022-07-29T08:41:28;5.47;;;2.55;;
35795;SDS011;21916;52.428;13.302;2022-07-29T08:43:54;7.70;;;2.22;;
35795;SDS011;21916;52.428;13.302;2022-07-29T08:46:20;4.43;;;2.10;;
35795;SDS011;21916;52.428;13.302;2022-07-29T08:48:46;5.18;;;1.95;;
35795;SDS011;21916;52.428;13.302;2022-07-29T08:51:14;4.65;;;2.10;;
35795;SDS011;21916;52.428;13.302;2022-07-29T08:53:43;4.63;;;2.40;;
35795;SDS011;21916;52.428;13.302;2022-07-29T08:56:13;4.47;;;1.75;;
35795;SDS011;21916;52.428;13.302;2022-07-29T08:58:41;7.07;;;1.40;;
35795;SDS011;21916;52.428;13.302;2022-07-29T09:01:07;5.57;;;1.88;;
35795;SDS011;21916;52.428;13.302;2022-07-29T09:03:36;4.50;;;1.67;;
35795;SDS011;21916;52.428;13.302;2022-07-29T09:06:04;4.30;;;1.60;;
35795;SDS011;21916;52.428;13.302;2022-07-29T09:08:32;5.22;;;1.83;;
35795;SDS011;21916;52.428;13.302;2022-07-29T09:11:00;4.68;;;1.90;;
35795;SDS011;21916;52.428;13.302;2022-07-29T09:13:27;4.07;;;1.75;;
35795;SDS011;21916;52.428;13.302;2022-07-29T09:15:53;4.60;;;1.60;;
35795;SDS011;21916;52.428;13.302;2022-07-29T09:21:01;4.22;;;2.08;;
35795;SDS011;21916;52.428;13.302;2022-07-29T09:24:10;8.60;;;2.30;;
35795;SDS011;21916;52.428;13.302;2022-07-29T09:26:45;6.53;;;1.73;;
35795;SDS011;21916;52.428;13.302;2022-07-29T09:29:15;7.07;;;1.77;;
35795;SDS011;21916;52.428;13.302;2022-07-29T09:31:46;4.80;;;1.95;;
35795;SDS011;21916;52.428;13.302;2022-07-29T09:34:14;6.90;;;1.75;;
35795;SDS011;21916;52.428;13.302;2022-07-29T09:36:42;5.85;;;1.90;;
35795;SDS011;21916;52.428;13.302;2022-07-29T09:39:10;5.65;;;1.50;;
35795;SDS011;21916;52.428;13.302;2022-07-29T09:44:15;6.22;;;1.58;;
35795;SDS011;21916;52.428;13.302;2022-07-29T09:47:00;6.38;;;2.00;;
35795;SDS011;21916;52.428;13.302;2022-07-29T09:49:34;5.93;;;1.67;;
35795;SDS011;21916;52.428;13.302;2022-07-29T09:54:40;5.82;;;1.58;;
35795;SDS011;21916;52.428;13.302;2022-07-29T09:57:07;6.38;;;1.80;;
35795;SDS011;21916;52.428;13.302;2022-07-29T09:59:59;5.25;;;1.60;;
35795;SDS011;21916;52.428;13.302;2022-07-29T10:02:29;5.18;;;1.88;;
35795;SDS011;21916;52.428;13.302;2022-07-29T10:04:57;4.28;;;1.83;;
35795;SDS011;21916;52.428;13.302;2022-07-29T10:07:23;5.75;;;1.20;;
35795;SDS011;21916;52.428;13.302;2022-07-29T10:09:53;8.93;;;1.80;;
35795;SDS011;21916;52.428;13.302;2022-07-29T10:12:21;6.45;;;1.80;;
35795;SDS011;21916;52.428;13.302;2022-07-29T10:14:47;6.10;;;1.38;;
35795;SDS011;21916;52.428;13.302;2022-07-29T10:17:14;3.63;;;1.48;;
35795;SDS011;21916;52.428;13.302;2022-07-29T10:19:41;2.58;;;1.10;;
35795;SDS011;21916;52.428;13.302;2022-07-29T10:22:08;7.55;;;1.50;;
35795;SDS011;21916;52.428;13.302;2022-07-29T10:24:36;4.72;;;1.45;;
35795;SDS011;21916;52.428;13.302;2022-07-29T10:27:03;4.50;;;1.70;;
35795;SDS011;21916;52.428;13.302;2022-07-29T10:29:31;4.55;;;1.50;;
35795;SDS011;21916;52.428;13.302;2022-07-29T10:43:22;3.63;;;1.48;;
35795;SDS011;21916;52.428;13.302;2022-07-29T10:45:55;3.47;;;1.38;;
35795;SDS011;21916;52.428;13.302;2022-07-29T10:48:22;5.00;;;1.70;;
35795;SDS011;21916;52.428;13.302;2022-07-29T10:51:02;4.78;;;1.42;;
35795;SDS011;21916;52.428;13.302;2022-07-29T10:56:23;3.03;;;1.30;;
35795;SDS011;21916;52.428;13.302;2022-07-29T11:01:46;4.20;;;1.20;;
35795;SDS011;21916;52.428;13.302;2022-07-29T11:04:16;3.65;;;1.40;;
35795;SDS011;21916;52.428;13.302;2022-07-29T11:09:30;4.50;;;1.45;;
35795;SDS011;21916;52.428;13.302;2022-07-29T11:11:57;3.58;;;1.25;;
35795;SDS011;21916;52.428;13.302;2022-07-29T11:17:17;2.22;;;1.40;;
35795;SDS011;21916;52.428;13.302;2022-07-29T11:19:43;3.88;;;1.60;;
35795;SDS011;21916;52.428;13.302;2022-07-29T11:22:10;7.80;;;1.67;;
35795;SDS011;21916;52.428;13.302;2022-07-29T11:24:37;4.90;;;1.52;;
35795;SDS011;21916;52.428;13.302;2022-07-29T11:29:39;2.53;;;1.50;;
35795;SDS011;21916;52.428;13.302;2022-07-29T11:32:13;4.40;;;1.73;;
35795;SDS011;21916;52.428;13.302;2022-07-29T11:34:41;4.18;;;1.55;;
35795;SDS011;21916;52.428;13.302;2022-07-29T11:39:43;3.17;;;1.58;;
35795;SDS011;21916;52.428;13.302;2022-07-29T11:47:23;6.38;;;1.83;;
35795;SDS011;21916;52.428;13.302;2022-07-29T11:49:51;4.00;;;1.73;;
35795;SDS011;21916;52.428;13.302;2022-07-29T11:52:18;3.50;;;1.63;;
35795;SDS011;21916;52.428;13.302;2022-07-29T11:54:44;6.07;;;1.90;;
35795;SDS011;21916;52.428;13.302;2022-07-29T11:57:13;4.75;;;2.30;;
35795;SDS011;21916;52.428;13.302;2022-07-29T11:59:42;5.75;;;2.22;;
35795;SDS011;21916;52.428;13.302;2022-07-29T12:02:09;5.10;;;2.03;;
35795;SDS011;21916;52.428;13.302;2022-07-29T12:07:32;5.78;;;1.85;;
35795;SDS011;21916;52.428;13.302;2022-07-29T12:09:59;3.90;;;1.83;;
35795;SDS011;21916;52.428;13.302;2022-07-29T12:12:26;5.30;;;2.22;;
35795;SDS011;21916;52.428;13.302;2022-07-29T12:14:52;4.78;;;1.60;;
35795;SDS011;21916;52.428;13.302;2022-07-29T12:17:26;3.83;;;1.80;;
35795;SDS011;21916;52.428;13.302;2022-07-29T12:19:57;4.50;;;1.77;;
35795;SDS011;21916;52.428;13.302;2022-07-29T12:22:25;3.22;;;1.77;;
35795;SDS011;21916;52.428;13.302;2022-07-29T12:25:17;5.35;;;1.92;;
35795;SDS011;21916;52.428;13.302;2022-07-29T12:27:43;4.72;;;1.98;;
35795;SDS011;21916;52.428;13.302;2022-07-29T12:30:10;2.78;;;1.90;;
35795;SDS011;21916;52.428;13.302;2022-07-29T12:35:24;3.58;;;1.80;;
35795;SDS011;21916;52.428;13.302;2022-07-29T12:37:50;4.78;;;2.22;;
35795;SDS011;21916;52.428;13.302;2022-07-29T12:40:17;3.53;;;1.73;;
35795;SDS011;21916;52.428;13.302;2022-07-29T12:45:48;5.38;;;2.00;;
35795;SDS011;21916;52.428;13.302;2022-07-29T12:48:16;3.80;;;1.80;;
35795;SDS011;21916;52.428;13.302;2022-07-29T12:50:52;2.83;;;1.83;;
35795;SDS011;21916;52.428;13.302;2022-07-29T12:53:23;2.88;;;1.95;;
35795;SDS011;21916;52.428;13.302;2022-07-29T12:55:50;3.65;;;1.85;;
35795;SDS011;21916;52.428;13.302;2022-07-29T12:58:31;4.40;;;1.90;;
35795;SDS011;21916;52.428;13.302;2022-07-29T13:01:01;4.32;;;1.80;;
35795;SDS011;21916;52.428;13.302;2022-07-29T13:03:41;5.30;;;2.20;;
35795;SDS011;21916;52.428;13.302;2022-07-29T13:06:26;2.85;;;2.20;;
35795;SDS011;21916;52.428;13.302;2022-07-29T13:08:59;4.13;;;1.98;;
35795;SDS011;21916;52.428;13.302;2022-07-29T13:13:58;3.45;;;1.83;;
35795;SDS011;21916;52.428;13.302;2022-07-29T13:16:24;2.65;;;1.70;;
35795;SDS011;21916;52.428;13.302;2022-07-29T13:19:02;7.90;;;2.10;;
35795;SDS011;21916;52.428;13.302;2022-07-29T13:21:33;7.45;;;2.38;;
35795;SDS011;21916;52.428;13.302;2022-07-29T13:23:59;4.88;;;2.30;;
35795;SDS011;21916;52.428;13.302;2022-07-29T13:26:25;4.43;;;1.88;;
35795;SDS011;21916;52.428;13.302;2022-07-29T13:28:51;4.07;;;2.28;;
35795;SDS011;21916;52.428;13.302;2022-07-29T13:31:17;3.70;;;2.28;;
35795;SDS011;21916;52.428;13.302;2022-07-29T13:33:43;4.85;;;2.08;;
35795;SDS011;21916;52.428;13.302;2022-07-29T13:36:08;2.95;;;2.08;;
35795;SDS011;21916;52.428;13.302;2022-07-29T13:38:34;5.22;;;2.13;;
35795;SDS011;21916;52.428;13.302;2022-07-29T13:41:00;3.30;;;1.83;;
35795;SDS011;21916;52.428;13.302;2022-07-29T13:43:26;4.43;;;2.15;;
35795;SDS011;21916;52.428;13.302;2022-07-29T13:45:52;3.67;;;2.20;;
35795;SDS011;21916;52.428;13.302;2022-07-29T13:48:18;2.72;;;1.90;;
35795;SDS011;21916;52.428;13.302;2022-07-29T13:50:43;5.80;;;2.20;;
35795;SDS011;21916;52.428;13.302;2022-07-29T13:53:10;4.78;;;2.05;;
35795;SDS011;21916;52.428;13.302;2022-07-29T13:55:36;3.28;;;1.85;;
35795;SDS011;21916;52.428;13.302;2022-07-29T13:58:02;5.22;;;2.35;;
35795;SDS011;21916;52.428;13.302;2022-07-29T14:00:28;4.35;;;2.10;;
35795;SDS011;21916;52.428;13.302;2022-07-29T14:02:54;8.32;;;4.18;;
35795;SDS011;21916;52.428;13.302;2022-07-29T14:05:24;3.47;;;2.15;;
35795;SDS011;21916;52.428;13.302;2022-07-29T14:07:50;4.35;;;2.13;;
35795;SDS011;21916;52.428;13.302;2022-07-29T14:10:15;5.65;;;2.05;;
35795;SDS011;21916;52.428;13.302;2022-07-29T14:12:41;3.63;;;2.10;;
35795;SDS011;21916;52.428;13.302;2022-07-29T14:15:07;5.68;;;2.13;;
35795;SDS011;21916;52.428;13.302;2022-07-29T14:17:33;4.55;;;2.15;;
35795;SDS011;21916;52.428;13.302;2022-07-29T14:20:00;4.75;;;2.10;;
35795;SDS011;21916;52.428;13.302;2022-07-29T14:22:26;4.65;;;2.03;;
35795;SDS011;21916;52.428;13.302;2022-07-29T14:24:52;3.80;;;2.38;;
35795;SDS011;21916;52.428;13.302;2022-07-29T14:27:17;2.72;;;1.95;;
35795;SDS011;21916;52.428;13.302;2022-07-29T14:29:43;3.53;;;2.15;;
35795;SDS011;21916;52.428;13.302;2022-07-29T14:32:09;5.70;;;2.17;;
35795;SDS011;21916;52.428;13.302;2022-07-29T14:34:36;3.58;;;1.83;;
35795;SDS011;21916;52.428;13.302;2022-07-29T14:37:03;6.63;;;2.55;;
35795;SDS011;21916;52.428;13.302;2022-07-29T14:39:30;2.47;;;1.83;;
35795;SDS011;21916;52.428;13.302;2022-07-29T14:41:57;4.85;;;2.00;;
35795;SDS011;21916;52.428;13.302;2022-07-29T14:44:23;3.70;;;1.83;;
35795;SDS011;21916;52.428;13.302;2022-07-29T14:46:49;5.68;;;2.40;;
35795;SDS011;21916;52.428;13.302;2022-07-29T14:49:15;4.35;;;2.10;;
35795;SDS011;21916;52.428;13.302;2022-07-29T14:51:41;4.78;;;2.20;;
35795;SDS011;21916;52.428;13.302;2022-07-29T14:54:07;3.42;;;2.35;;
35795;SDS011;21916;52.428;13.302;2022-07-29T14:56:33;4.65;;;1.88;;
35795;SDS011;21916;52.428;13.302;2022-07-29T14:58:59;2.80;;;2.30;;
35795;SDS011;21916;52.428;13.302;2022-07-29T15:01:25;4.47;;;2.13;;
35795;SDS011;21916;52.428;13.302;2022-07-29T15:03:51;3.22;;;1.80;;
35795;SDS011;21916;52.428;13.302;2022-07-29T15:06:17;8.07;;;2.63;;
35795;SDS011;21916;52.428;13.302;2022-07-29T15:08:43;3.38;;;2.20;;
35795;SDS011;21916;52.428;13.302;2022-07-29T15:11:09;4.70;;;2.15;;
35795;SDS011;21916;52.428;13.302;2022-07-29T15:13:35;3.05;;;1.70;;
35795;SDS011;21916;52.428;13.302;2022-07-29T15:16:01;4.25;;;2.15;;
35795;SDS011;21916;52.428;13.302;2022-07-29T15:18:26;2.75;;;1.80;;
35795;SDS011;21916;52.428;13.302;2022-07-29T15:20:52;5.30;;;1.80;;
35795;SDS011;21916;52.428;13.302;2022-07-29T15:23:18;5.47;;;2.00;;
35795;SDS011;21916;52.428;13.302;2022-07-29T15:25:44;4.32;;;1.95;;
35795;SDS011;21916;52.428;13.302;2022-07-29T15:28:10;3.78;;;2.17;;
35795;SDS011;21916;52.428;13.302;2022-07-29T15:30:36;3.80;;;2.08;;
35795;SDS011;21916;52.428;13.302;2022-07-29T15:33:06;5.82;;;2.22;;
35795;SDS011;21916;52.428;13.302;2022-07-29T15:35:34;4.35;;;1.88;;
35795;SDS011;21916;52.428;13.302;2022-07-29T15:38:00;2.22;;;1.80;;
35795;SDS011;21916;52.428;13.302;2022-07-29T15:40:26;3.75;;;1.98;;
35795;SDS011;21916;52.428;13.302;2022-07-29T15:42:53;5.80;;;2.17;;
35795;SDS011;21916;52.428;13.302;2022-07-29T15:45:19;4.07;;;1.65;;
35795;SDS011;21916;52.428;13.302;2022-07-29T15:47:45;3.63;;;1.90;;
35795;SDS011;21916;52.428;13.302;2022-07-29T15:50:11;3.17;;;2.05;;